Time;durP1;ratioP1;P1;durP2;ratioP2;P2;SDS_P1;SDS_P2;PMS_P1;PMS_P2;Temp;Humidity;BMP_temperature;BMP_pressure;BME280_temperature;BME280_humidity;BME280_pressure;Samples;Min_cycle;Max_cycle;Signal;HPM_P1;HPM_P2
2021/03/19 00:01:00;;;;;;;12.18;7.57;;;;;;;;;;6209490;28;20096;-71
2021/03/19 00:04:01;;;;;;;13.80;7.72;;;;;;;;;;6211564;28;20053;-71
2021/03/19 00:07:03;;;;;;;48.33;23.52;;;;;;;;;;6208431;28;20851;-69
2021/03/19 00:10:05;;;;;;;39.78;17.33;;;;;;;;;;6208349;28;20054;-68
2021/03/19 00:13:08;;;;;;;19.65;10.93;;;;;;;;;;6207184;28;20046;-70
2021/03/19 00:16:10;;;;;;;26.52;14.02;;;;;;;;;;6211254;28;20050;-71
2021/03/19 00:19:11;;;;;;;21.45;11.88;;;;;;;;;;6204765;28;20046;-69
2021/03/19 00:22:13;;;;;;;19.27;11.95;;;;;;;;;;6207444;28;20125;-74
2021/03/19 00:25:15;;;;;;;20.50;11.88;;;;;;;;;;6208993;28;20073;-69
2021/03/19 00:28:17;;;;;;;52.28;26.85;;;;;;;;;;6205155;28;20055;-69
2021/03/19 00:31:18;;;;;;;9.50;7.50;;;;;;;;;;6207771;28;20145;-72
2021/03/19 00:34:19;;;;;;;10.00;6.88;;;;;;;;;;6213322;28;20169;-77
2021/03/19 00:37:21;;;;;;;8.98;6.13;;;;;;;;;;6209416;28;20066;-75
2021/03/19 00:40:22;;;;;;;9.40;6.35;;;;;;;;;;6211818;28;20507;-68
2021/03/19 00:43:24;;;;;;;8.93;6.53;;;;;;;;;;6211613;28;20137;-71
2021/03/19 00:46:25;;;;;;;8.23;6.30;;;;;;;;;;6207180;28;20125;-69
2021/03/19 00:49:26;;;;;;;11.65;6.80;;;;;;;;;;6205217;28;20113;-71
2021/03/19 00:52:29;;;;;;;11.27;6.70;;;;;;;;;;6204973;28;20058;-70
2021/03/19 00:55:30;;;;;;;9.95;7.28;;;;;;;;;;6209990;28;20050;-69
2021/03/19 00:58:31;;;;;;;11.93;7.25;;;;;;;;;;6206779;28;20362;-70
2021/03/19 01:01:32;;;;;;;10.63;7.07;;;;;;;;;;6206465;28;20099;-70
2021/03/19 01:04:33;;;;;;;11.13;7.22;;;;;;;;;;6210272;28;20503;-69
2021/03/19 01:07:35;;;;;;;10.52;7.00;;;;;;;;;;6209216;28;20112;-69
2021/03/19 01:10:39;;;;;;;9.18;7.13;;;;;;;;;;6202930;28;20213;-68
2021/03/19 01:13:40;;;;;;;9.87;7.23;;;;;;;;;;6208005;28;20058;-68
2021/03/19 01:16:41;;;;;;;12.23;7.45;;;;;;;;;;6201563;28;20164;-69
2021/03/19 01:19:42;;;;;;;8.73;7.05;;;;;;;;;;6212407;28;20168;-71
2021/03/19 01:22:44;;;;;;;9.25;6.43;;;;;;;;;;6207419;28;20150;-70
2021/03/19 01:25:45;;;;;;;10.68;7.28;;;;;;;;;;6210658;28;20149;-68
2021/03/19 01:28:46;;;;;;;9.63;7.28;;;;;;;;;;6206031;28;20057;-71
2021/03/19 01:31:47;;;;;;;11.13;7.18;;;;;;;;;;6203201;28;20141;-71
2021/03/19 01:34:48;;;;;;;9.52;7.07;;;;;;;;;;6208900;28;20140;-68
2021/03/19 01:37:51;;;;;;;9.48;6.53;;;;;;;;;;6208410;28;20132;-68
2021/03/19 01:40:52;;;;;;;10.52;7.72;;;;;;;;;;6206697;28;20072;-69
2021/03/19 01:43:54;;;;;;;12.55;8.00;;;;;;;;;;6209270;28;20057;-69
2021/03/19 01:47:33;;;;;;;13.75;7.50;;;;;;;;;;6204241;28;20057;-69
2021/03/19 01:51:11;;;;;;;11.07;6.53;;;;;;;;;;6216066;28;20605;-70
2021/03/19 01:54:50;;;;;;;11.60;7.20;;;;;;;;;;6203104;28;20458;-69
2021/03/19 01:58:28;;;;;;;14.75;7.05;;;;;;;;;;6209448;28;20042;-70
2021/03/19 02:02:02;;;;;;;10.32;6.93;;;;;;;;;;6204944;28;20042;-75
2021/03/19 02:05:41;;;;;;;9.90;7.43;;;;;;;;;;6185693;28;20718;-72
2021/03/19 02:09:19;;;;;;;9.50;7.43;;;;;;;;;;6200036;28;20060;-69
2021/03/19 02:12:58;;;;;;;11.00;7.47;;;;;;;;;;6206141;28;20478;-70
2021/03/19 02:16:36;;;;;;;12.00;7.30;;;;;;;;;;6208666;28;20483;-69
2021/03/19 02:20:15;;;;;;;9.63;6.95;;;;;;;;;;6211810;28;20100;-69
2021/03/19 02:23:53;;;;;;;12.43;7.25;;;;;;;;;;6212005;28;20121;-69
2021/03/19 02:27:32;;;;;;;11.00;6.80;;;;;;;;;;6210685;28;20141;-70
2021/03/19 02:31:10;;;;;;;10.27;6.88;;;;;;;;;;6206932;28;20171;-71
2021/03/19 02:34:12;;;;;;;10.70;6.63;;;;;;;;;;6211570;28;20462;-70
2021/03/19 02:37:16;;;;;;;11.25;6.32;;;;;;;;;;6206659;28;20065;-71
2021/03/19 02:40:20;;;;;;;10.32;6.18;;;;;;;;;;6211223;28;20125;-73
2021/03/19 02:43:22;;;;;;;9.13;6.45;;;;;;;;;;6209222;28;20046;-69
2021/03/19 02:46:23;;;;;;;9.43;6.15;;;;;;;;;;6207447;28;20124;-69
2021/03/19 02:49:25;;;;;;;10.35;6.90;;;;;;;;;;6197601;28;20058;-69
2021/03/19 02:52:32;;;;;;;9.40;6.85;;;;;;;;;;6200594;28;20100;-70
2021/03/19 02:55:33;;;;;;;8.85;6.35;;;;;;;;;;6208720;28;20492;-70
2021/03/19 02:58:35;;;;;;;9.50;6.18;;;;;;;;;;6209206;28;20549;-73
2021/03/19 03:01:36;;;;;;;9.35;6.45;;;;;;;;;;6208092;28;20076;-70
2021/03/19 03:04:38;;;;;;;11.13;6.25;;;;;;;;;;6203361;28;20555;-72
2021/03/19 03:07:39;;;;;;;10.25;6.03;;;;;;;;;;6201258;28;20132;-71
2021/03/19 03:10:42;;;;;;;9.80;5.97;;;;;;;;;;6208969;28;20132;-71
2021/03/19 03:13:43;;;;;;;10.82;6.28;;;;;;;;;;6209161;28;20132;-68
2021/03/19 03:16:45;;;;;;;9.23;6.28;;;;;;;;;;6201693;28;20052;-69
2021/03/19 03:19:47;;;;;;;8.82;5.82;;;;;;;;;;6202217;28;20393;-68
2021/03/19 03:22:48;;;;;;;10.32;6.18;;;;;;;;;;6208391;28;20050;-67
2021/03/19 03:25:49;;;;;;;8.13;5.55;;;;;;;;;;6202800;28;20057;-69
2021/03/19 03:28:51;;;;;;;8.07;5.40;;;;;;;;;;6199980;28;20500;-67
2021/03/19 03:31:52;;;;;;;9.30;5.88;;;;;;;;;;6206829;28;20069;-68
2021/03/19 03:34:54;;;;;;;7.60;5.88;;;;;;;;;;6203491;28;20123;-67
2021/03/19 03:37:55;;;;;;;10.52;6.07;;;;;;;;;;6211612;28;20138;-68
2021/03/19 03:40:59;;;;;;;7.93;6.15;;;;;;;;;;6205206;28;20078;-67
2021/03/19 03:44:00;;;;;;;11.77;6.18;;;;;;;;;;6210913;28;20187;-68
2021/03/19 03:47:01;;;;;;;8.98;5.82;;;;;;;;;;6202724;28;20085;-69
2021/03/19 03:50:06;;;;;;;7.82;5.50;;;;;;;;;;6212952;28;20069;-68
2021/03/19 03:53:09;;;;;;;8.60;5.45;;;;;;;;;;6205385;28;20121;-69
2021/03/19 03:56:11;;;;;;;9.77;5.90;;;;;;;;;;6212879;28;20092;-69
2021/03/19 03:59:13;;;;;;;9.90;5.70;;;;;;;;;;6205628;28;20125;-71
2021/03/19 04:02:16;;;;;;;8.77;6.03;;;;;;;;;;6213938;28;20125;-73
2021/03/19 04:05:24;;;;;;;10.00;6.63;;;;;;;;;;6209248;28;20140;-72
2021/03/19 04:08:27;;;;;;;9.35;5.63;;;;;;;;;;6209078;28;20088;-71
2021/03/19 04:11:29;;;;;;;9.73;5.95;;;;;;;;;;6205563;28;20430;-71
2021/03/19 04:14:30;;;;;;;9.70;6.53;;;;;;;;;;6208396;28;20780;-71
2021/03/19 04:17:34;;;;;;;10.45;6.13;;;;;;;;;;6210993;28;20080;-70
2021/03/19 04:20:36;;;;;;;10.35;5.82;;;;;;;;;;6205471;28;20070;-71
2021/03/19 04:23:39;;;;;;;9.13;5.80;;;;;;;;;;6212862;28;20156;-70
2021/03/19 04:26:40;;;;;;;10.52;5.93;;;;;;;;;;6206169;28;20085;-70
2021/03/19 04:29:41;;;;;;;8.50;5.57;;;;;;;;;;6203186;28;20129;-73
2021/03/19 04:32:42;;;;;;;9.40;6.07;;;;;;;;;;6212646;28;20129;-71
2021/03/19 04:35:45;;;;;;;10.00;6.32;;;;;;;;;;6209910;28;20169;-71
2021/03/19 04:38:47;;;;;;;8.77;5.53;;;;;;;;;;6211434;28;20132;-70
2021/03/19 04:41:51;;;;;;;10.35;6.45;;;;;;;;;;6213519;28;20057;-70
2021/03/19 04:44:52;;;;;;;10.38;6.00;;;;;;;;;;6206678;28;20049;-70
2021/03/19 04:47:53;;;;;;;9.43;6.38;;;;;;;;;;6206380;28;20148;-72
2021/03/19 04:50:55;;;;;;;14.35;6.50;;;;;;;;;;6213382;28;20193;-70
2021/03/19 04:53:57;;;;;;;8.57;5.95;;;;;;;;;;6205436;28;20125;-70
2021/03/19 04:56:59;;;;;;;10.82;5.80;;;;;;;;;;6213364;28;20077;-68
2021/03/19 05:00:00;;;;;;;9.93;5.68;;;;;;;;;;6205539;28;20132;-70
2021/03/19 05:03:01;;;;;;;7.80;5.93;;;;;;;;;;6207367;28;20141;-75
2021/03/19 05:06:03;;;;;;;7.43;5.75;;;;;;;;;;6212590;28;20758;-70
2021/03/19 05:09:04;;;;;;;9.90;6.53;;;;;;;;;;6206850;28;20077;-72
2021/03/19 05:12:06;;;;;;;9.57;5.95;;;;;;;;;;6180827;28;20082;-66
2021/03/19 05:15:08;;;;;;;8.80;5.90;;;;;;;;;;6197924;28;20188;-73
2021/03/19 05:18:10;;;;;;;7.55;5.68;;;;;;;;;;6210332;28;20512;-69
2021/03/19 05:21:12;;;;;;;8.90;6.22;;;;;;;;;;6210999;28;20152;-68
2021/03/19 05:24:13;;;;;;;9.82;6.65;;;;;;;;;;6211214;28;20053;-74
2021/03/19 05:27:14;;;;;;;7.45;5.57;;;;;;;;;;6197644;28;20137;-70
2021/03/19 05:30:17;;;;;;;9.82;6.15;;;;;;;;;;6211883;28;20054;-70
2021/03/19 05:33:18;;;;;;;11.82;6.68;;;;;;;;;;6207170;28;20125;-69
2021/03/19 05:36:23;;;;;;;11.05;6.20;;;;;;;;;;6206258;28;20121;-70
2021/03/19 05:39:24;;;;;;;14.05;6.93;;;;;;;;;;6203408;28;20121;-68
2021/03/19 05:42:28;;;;;;;9.15;6.22;;;;;;;;;;6212179;28;20062;-68
2021/03/19 05:45:30;;;;;;;12.25;7.28;;;;;;;;;;6206932;28;20046;-68
2021/03/19 05:48:39;;;;;;;11.10;6.70;;;;;;;;;;6205950;28;20080;-70
2021/03/19 05:51:42;;;;;;;10.23;5.90;;;;;;;;;;6215076;28;20811;-69
2021/03/19 05:54:45;;;;;;;9.80;6.80;;;;;;;;;;6209008;28;20049;-70
2021/03/19 05:57:46;;;;;;;10.35;6.35;;;;;;;;;;6208474;28;20050;-68
2021/03/19 06:00:47;;;;;;;9.48;7.10;;;;;;;;;;6209248;28;20077;-69
2021/03/19 06:03:49;;;;;;;11.50;7.30;;;;;;;;;;6210089;28;20082;-69
2021/03/19 06:06:54;;;;;;;12.02;7.25;;;;;;;;;;6211499;28;20173;-68
2021/03/19 06:10:15;;;;;;;10.60;6.10;;;;;;;;;;6210270;28;20074;-69
2021/03/19 06:13:20;;;;;;;10.75;6.63;;;;;;;;;;6213197;28;20042;-68
2021/03/19 06:16:43;;;;;;;12.98;6.60;;;;;;;;;;6207247;28;20050;-69
2021/03/19 06:19:49;;;;;;;12.32;6.57;;;;;;;;;;6212727;28;20164;-71
2021/03/19 06:23:02;;;;;;;11.48;6.57;;;;;;;;;;6207781;28;20054;-69
2021/03/19 06:26:06;;;;;;;8.85;5.95;;;;;;;;;;6206206;28;20065;-72
2021/03/19 06:29:13;;;;;;;10.30;6.00;;;;;;;;;;6206834;28;20097;-72
2021/03/19 06:32:24;;;;;;;11.25;5.80;;;;;;;;;;6202635;28;20149;-69
2021/03/19 06:35:31;;;;;;;9.50;5.63;;;;;;;;;;6206417;28;20132;-68
2021/03/19 06:38:36;;;;;;;13.02;6.18;;;;;;;;;;6210632;28;20131;-71
2021/03/19 06:41:38;;;;;;;8.55;5.55;;;;;;;;;;6206077;28;20513;-69
2021/03/19 06:44:40;;;;;;;9.13;5.68;;;;;;;;;;6208999;28;20516;-70
2021/03/19 06:47:42;;;;;;;10.45;5.95;;;;;;;;;;6209056;28;20181;-69
2021/03/19 06:50:44;;;;;;;7.63;5.20;;;;;;;;;;6212041;28;20148;-70
2021/03/19 06:53:55;;;;;;;11.48;5.57;;;;;;;;;;6203333;28;20148;-71
2021/03/19 06:57:05;;;;;;;8.82;5.68;;;;;;;;;;6210591;28;20129;-68
2021/03/19 07:00:08;;;;;;;9.48;5.53;;;;;;;;;;6201498;28;20226;-70
2021/03/19 07:03:26;;;;;;;8.50;5.57;;;;;;;;;;6206030;28;20054;-71
2021/03/19 07:06:54;;;;;;;17.90;7.85;;;;;;;;;;6203054;28;20600;-73
2021/03/19 07:10:03;;;;;;;15.25;5.30;;;;;;;;;;6204997;28;20211;-73
2021/03/19 07:13:13;;;;;;;9.90;4.53;;;;;;;;;;6208191;28;20046;-74
2021/03/19 07:16:16;;;;;;;12.02;5.22;;;;;;;;;;6198576;28;20069;-73
2021/03/19 07:19:20;;;;;;;7.57;4.55;;;;;;;;;;6212820;28;20133;-74
2021/03/19 07:22:28;;;;;;;8.40;4.27;;;;;;;;;;6207819;28;20046;-73
2021/03/19 07:25:54;;;;;;;6.53;4.00;;;;;;;;;;6208792;28;22113;-73
2021/03/19 07:29:16;;;;;;;10.07;4.00;;;;;;;;;;6204314;28;20055;-73
2021/03/19 07:32:34;;;;;;;6.43;3.67;;;;;;;;;;6202958;28;20041;-72
2021/03/19 07:35:45;;;;;;;4.57;3.40;;;;;;;;;;6206592;28;20038;-73
2021/03/19 07:38:57;;;;;;;6.60;3.60;;;;;;;;;;6212354;28;20129;-72
2021/03/19 07:42:10;;;;;;;5.07;3.50;;;;;;;;;;6203586;28;20050;-73
2021/03/19 07:45:19;;;;;;;6.03;3.60;;;;;;;;;;6210113;28;20069;-75
2021/03/19 07:48:25;;;;;;;4.60;3.45;;;;;;;;;;6204544;28;20156;-73
2021/03/19 07:51:34;;;;;;;4.85;3.78;;;;;;;;;;6207620;28;20046;-75
2021/03/19 07:54:45;;;;;;;12.57;3.63;;;;;;;;;;6209328;28;20350;-69
2021/03/19 07:57:52;;;;;;;6.10;3.45;;;;;;;;;;6208141;28;20140;-70
2021/03/19 08:01:00;;;;;;;6.35;3.70;;;;;;;;;;6208045;28;20493;-70
2021/03/19 08:04:11;;;;;;;6.70;3.88;;;;;;;;;;6206010;28;20852;-74
2021/03/19 08:07:21;;;;;;;7.28;3.53;;;;;;;;;;6206679;28;20615;-71
2021/03/19 08:10:26;;;;;;;4.85;3.53;;;;;;;;;;6203461;28;20564;-71
2021/03/19 08:13:43;;;;;;;4.97;3.83;;;;;;;;;;6209729;28;20049;-74
2021/03/19 08:16:50;;;;;;;5.15;3.35;;;;;;;;;;6201075;28;20456;-71
2021/03/19 08:19:59;;;;;;;6.43;4.22;;;;;;;;;;6203480;28;20645;-71
2021/03/19 08:23:03;;;;;;;5.55;4.07;;;;;;;;;;6206016;28;20136;-70
2021/03/19 08:26:04;;;;;;;5.55;3.80;;;;;;;;;;6205133;28;20781;-71
2021/03/19 08:29:25;;;;;;;10.40;4.13;;;;;;;;;;6207446;28;20054;-70
2021/03/19 08:32:33;;;;;;;6.78;3.60;;;;;;;;;;6199479;28;20404;-74
2021/03/19 08:35:38;;;;;;;6.85;4.45;;;;;;;;;;6197809;28;20039;-70
2021/03/19 08:38:44;;;;;;;5.57;3.72;;;;;;;;;;6184359;28;20585;-72
2021/03/19 08:41:48;;;;;;;5.65;3.53;;;;;;;;;;6193954;28;20050;-71
2021/03/19 08:44:50;;;;;;;8.43;3.40;;;;;;;;;;6195697;28;20498;-70
2021/03/19 08:47:53;;;;;;;6.00;4.03;;;;;;;;;;6172132;28;20073;-70
2021/03/19 08:50:55;;;;;;;9.45;3.90;;;;;;;;;;6194199;28;20092;-70
2021/03/19 08:54:16;;;;;;;4.75;3.72;;;;;;;;;;6204320;28;20151;-71
2021/03/19 08:57:33;;;;;;;5.10;3.92;;;;;;;;;;6204739;28;20045;-69
2021/03/19 09:00:52;;;;;;;4.47;3.50;;;;;;;;;;6202562;28;20177;-70
2021/03/19 09:03:55;;;;;;;4.93;3.60;;;;;;;;;;6205941;28;20092;-70
2021/03/19 09:07:22;;;;;;;4.72;3.55;;;;;;;;;;6205970;28;20046;-72
2021/03/19 09:11:01;;;;;;;5.82;3.40;;;;;;;;;;6200857;28;20081;-71
2021/03/19 09:14:19;;;;;;;5.40;3.58;;;;;;;;;;6185601;28;20081;-70
2021/03/19 09:17:50;;;;;;;5.03;3.42;;;;;;;;;;6205124;28;20369;-72
2021/03/19 09:21:08;;;;;;;4.20;3.42;;;;;;;;;;6203404;28;20060;-71
2021/03/19 09:24:16;;;;;;;8.88;3.95;;;;;;;;;;6208246;28;20132;-70
2021/03/19 09:27:26;;;;;;;7.68;3.50;;;;;;;;;;6205698;28;20050;-70
2021/03/19 09:30:34;;;;;;;4.70;3.53;;;;;;;;;;6208199;28;20137;-73
2021/03/19 09:34:16;;;;;;;9.00;3.88;;;;;;;;;;6207132;28;20072;-73
2021/03/19 09:37:47;;;;;;;6.63;3.60;;;;;;;;;;6108219;29;20052;-71
2021/03/19 09:40:52;;;;;;;4.68;3.30;;;;;;;;;;6123089;28;20555;-70
2021/03/19 09:43:53;;;;;;;7.78;3.50;;;;;;;;;;6203783;28;20077;-71
2021/03/19 09:46:59;;;;;;;5.13;3.50;;;;;;;;;;6204761;28;20116;-71
2021/03/19 09:50:06;;;;;;;6.15;3.97;;;;;;;;;;6204170;28;20046;-70
2021/03/19 09:53:25;;;;;;;7.53;3.10;;;;;;;;;;6203976;28;20413;-70
2021/03/19 09:56:29;;;;;;;4.57;3.63;;;;;;;;;;6206906;28;20169;-70
2021/03/19 09:59:31;;;;;;;;;;;;;;;;;;6209680;28;20152;-72
2021/03/19 10:02:35;;;;;;;5.55;3.17;;;;;;;;;;6207185;28;19968;-70
2021/03/19 10:05:40;;;;;;;6.97;3.70;;;;;;;;;;6204305;28;20847;-73
2021/03/19 10:08:41;;;;;;;3.42;2.80;;;;;;;;;;6206541;28;20172;-72
2021/03/19 10:11:53;;;;;;;4.40;3.30;;;;;;;;;;6208521;28;20173;-73
2021/03/19 10:14:57;;;;;;;7.07;3.38;;;;;;;;;;6203846;28;20132;-71
2021/03/19 10:18:00;;;;;;;4.68;3.67;;;;;;;;;;6206545;28;20124;-70
2021/03/19 10:21:06;;;;;;;6.97;3.78;;;;;;;;;;6204656;28;20128;-69
2021/03/19 10:24:08;;;;;;;4.68;3.38;;;;;;;;;;6203580;28;20077;-75
2021/03/19 10:27:12;;;;;;;3.65;3.30;;;;;;;;;;6205543;28;20054;-72
2021/03/19 10:30:20;;;;;;;6.13;3.95;;;;;;;;;;6204471;28;20045;-71
2021/03/19 10:33:24;;;;;;;3.40;2.83;;;;;;;;;;6205608;28;20057;-71
2021/03/19 10:36:34;;;;;;;4.20;3.35;;;;;;;;;;6204202;28;20153;-70
2021/03/19 10:39:39;;;;;;;3.13;2.75;;;;;;;;;;6206647;28;20080;-71
2021/03/19 10:42:43;;;;;;;4.10;3.00;;;;;;;;;;6206228;28;20419;-72
2021/03/19 10:45:50;;;;;;;4.93;3.45;;;;;;;;;;6202446;28;20140;-72
2021/03/19 10:48:57;;;;;;;9.50;3.78;;;;;;;;;;6207810;28;20219;-70
2021/03/19 10:52:03;;;;;;;6.07;3.58;;;;;;;;;;6207761;28;20437;-70
2021/03/19 10:55:07;;;;;;;4.82;3.70;;;;;;;;;;6207652;28;20100;-71
2021/03/19 10:58:37;;;;;;;3.95;2.95;;;;;;;;;;6202522;28;20114;-70
2021/03/19 11:01:40;;;;;;;4.28;2.88;;;;;;;;;;6207055;28;20054;-71
2021/03/19 11:04:42;;;;;;;3.38;3.08;;;;;;;;;;6207928;28;20065;-71
2021/03/19 11:07:45;;;;;;;4.85;3.40;;;;;;;;;;6203944;28;20054;-69
2021/03/19 11:10:48;;;;;;;4.82;3.25;;;;;;;;;;6207229;28;20081;-70
2021/03/19 11:14:01;;;;;;;5.47;2.88;;;;;;;;;;6207850;28;20061;-70
2021/03/19 11:17:16;;;;;;;3.22;2.83;;;;;;;;;;6208451;28;20066;-72
2021/03/19 11:20:33;;;;;;;4.80;2.80;;;;;;;;;;6203299;28;20160;-71
2021/03/19 11:23:37;;;;;;;3.92;3.03;;;;;;;;;;6206117;28;20100;-75
2021/03/19 11:26:38;;;;;;;4.43;3.28;;;;;;;;;;6206822;28;20058;-72
2021/03/19 11:29:42;;;;;;;3.90;3.10;;;;;;;;;;6210180;28;20259;-70
2021/03/19 11:32:43;;;;;;;5.63;3.03;;;;;;;;;;6207855;28;20099;-70
2021/03/19 11:36:04;;;;;;;3.65;3.00;;;;;;;;;;6206657;28;20146;-71
2021/03/19 11:39:24;;;;;;;3.40;2.85;;;;;;;;;;6198801;28;20704;-73
2021/03/19 11:42:27;;;;;;;5.65;2.95;;;;;;;;;;6187509;28;21104;-74
2021/03/19 11:45:30;;;;;;;6.95;3.42;;;;;;;;;;6203583;28;20127;-74
2021/03/19 11:48:33;;;;;;;3.80;3.10;;;;;;;;;;6201932;28;20749;-69
2021/03/19 11:51:38;;;;;;;7.80;3.30;;;;;;;;;;6200751;28;20454;-73
2021/03/19 11:54:41;;;;;;;6.93;3.40;;;;;;;;;;6200830;28;20428;-69
2021/03/19 11:57:42;;;;;;;5.03;2.80;;;;;;;;;;6209218;28;20081;-72
2021/03/19 12:00:44;;;;;;;7.32;3.10;;;;;;;;;;6210074;28;20176;-70
2021/03/19 12:03:46;;;;;;;3.30;2.88;;;;;;;;;;6215796;28;20064;-70
2021/03/19 12:06:48;;;;;;;5.22;3.42;;;;;;;;;;6209942;28;20060;-71
2021/03/19 12:09:51;;;;;;;5.20;3.15;;;;;;;;;;6209058;28;20077;-76
2021/03/19 12:12:52;;;;;;;8.55;3.38;;;;;;;;;;6214487;28;20117;-69
2021/03/19 12:15:53;;;;;;;4.45;2.95;;;;;;;;;;6209891;28;20052;-70
2021/03/19 12:18:55;;;;;;;5.03;3.20;;;;;;;;;;6205385;28;21939;-73
2021/03/19 12:21:57;;;;;;;4.95;3.15;;;;;;;;;;6213818;28;20133;-72
2021/03/19 12:24:58;;;;;;;4.32;3.03;;;;;;;;;;6212156;28;20100;-69
2021/03/19 12:28:00;;;;;;;4.60;2.80;;;;;;;;;;6211218;28;20066;-70
2021/03/19 12:31:01;;;;;;;3.80;2.85;;;;;;;;;;6212346;28;20042;-70
2021/03/19 12:34:02;;;;;;;7.60;3.38;;;;;;;;;;6210631;28;20159;-73
2021/03/19 12:37:04;;;;;;;5.03;3.25;;;;;;;;;;6217429;28;20085;-73
2021/03/19 12:40:08;;;;;;;4.88;3.47;;;;;;;;;;6210685;28;20054;-72
2021/03/19 12:43:12;;;;;;;3.97;3.05;;;;;;;;;;6212253;28;20042;-74
2021/03/19 12:46:14;;;;;;;3.28;2.90;;;;;;;;;;6213417;28;20053;-73
2021/03/19 12:49:15;;;;;;;4.57;2.67;;;;;;;;;;6215141;28;20146;-74
2021/03/19 12:52:16;;;;;;;7.07;3.13;;;;;;;;;;6211715;28;20077;-74
2021/03/19 12:55:19;;;;;;;2.67;2.33;;;;;;;;;;6207212;28;20106;-74
2021/03/19 12:58:20;;;;;;;2.72;2.25;;;;;;;;;;6207479;28;20073;-75
2021/03/19 13:01:22;;;;;;;3.17;2.50;;;;;;;;;;6211562;28;20054;-73
2021/03/19 13:04:23;;;;;;;4.10;3.15;;;;;;;;;;6213573;28;20120;-74
2021/03/19 13:07:24;;;;;;;5.15;3.00;;;;;;;;;;6209648;28;20132;-73
2021/03/19 13:10:29;;;;;;;4.53;2.75;;;;;;;;;;6211593;28;20108;-74
2021/03/19 13:13:31;;;;;;;6.45;2.92;;;;;;;;;;6207297;28;20066;-73
2021/03/19 13:16:32;;;;;;;3.95;2.67;;;;;;;;;;6214777;28;20057;-72
2021/03/19 13:19:33;;;;;;;3.72;3.10;;;;;;;;;;6213004;28;20429;-73
2021/03/19 13:22:34;;;;;;;7.38;3.10;;;;;;;;;;6215611;28;20070;-73
2021/03/19 13:25:38;;;;;;;9.35;3.28;;;;;;;;;;6213440;28;20561;-72
2021/03/19 13:28:39;;;;;;;;;;;;;;;;;;6213829;28;20089;-72
2021/03/19 13:31:40;;;;;;;7.32;3.70;;;;;;;;;;6215214;28;20385;-72
2021/03/19 13:34:42;;;;;;;3.72;2.92;;;;;;;;;;6209706;28;20516;-72
2021/03/19 13:37:43;;;;;;;5.68;3.35;;;;;;;;;;6218461;28;20439;-72
2021/03/19 13:40:47;;;;;;;13.18;3.80;;;;;;;;;;6217767;28;20448;-76
2021/03/19 13:43:48;;;;;;;11.23;3.50;;;;;;;;;;6216467;28;20503;-73
2021/03/19 13:46:49;;;;;;;10.05;3.40;;;;;;;;;;6213621;28;20487;-72
2021/03/19 13:49:50;;;;;;;12.20;3.55;;;;;;;;;;6214832;28;20445;-73
2021/03/19 13:52:53;;;;;;;4.22;3.40;;;;;;;;;;6217287;28;20493;-72
2021/03/19 13:55:55;;;;;;;5.25;3.60;;;;;;;;;;6212456;28;20038;-72
2021/03/19 13:58:58;;;;;;;4.57;3.67;;;;;;;;;;6216217;28;20088;-72
2021/03/19 14:01:59;;;;;;;5.18;3.30;;;;;;;;;;6208491;28;20053;-73
2021/03/19 14:05:01;;;;;;;8.20;3.58;;;;;;;;;;6210867;28;20088;-73
2021/03/19 14:08:03;;;;;;;5.30;3.42;;;;;;;;;;6202663;28;20602;-72
2021/03/19 14:11:08;;;;;;;5.55;3.30;;;;;;;;;;6209718;28;20212;-73
2021/03/19 14:14:09;;;;;;;15.43;3.83;;;;;;;;;;6210170;28;20045;-73
2021/03/19 14:17:10;;;;;;;3.78;3.35;;;;;;;;;;6205887;28;20135;-72
2021/03/19 14:20:20;;;;;;;6.75;3.10;;;;;;;;;;6210408;28;20066;-72
2021/03/19 14:23:24;;;;;;;6.18;3.47;;;;;;;;;;6206249;28;20763;-72
2021/03/19 14:26:26;;;;;;;4.85;3.50;;;;;;;;;;6203215;28;20069;-76
2021/03/19 14:29:27;;;;;;;9.60;4.38;;;;;;;;;;6203283;28;20133;-73
2021/03/19 14:32:28;;;;;;;13.75;3.83;;;;;;;;;;6207873;28;20500;-75
2021/03/19 14:35:30;;;;;;;6.32;3.65;;;;;;;;;;6205602;28;20064;-72
2021/03/19 14:38:31;;;;;;;6.93;3.50;;;;;;;;;;6205265;28;20046;-73
2021/03/19 14:41:33;;;;;;;5.65;3.40;;;;;;;;;;6207130;28;20053;-73
2021/03/19 14:44:35;;;;;;;14.02;3.70;;;;;;;;;;6206744;28;20065;-73
2021/03/19 14:47:36;;;;;;;11.43;4.47;;;;;;;;;;6206743;28;20093;-75
2021/03/19 14:50:40;;;;;;;4.13;3.42;;;;;;;;;;6206460;28;20093;-72
2021/03/19 14:53:43;;;;;;;10.77;4.20;;;;;;;;;;6206437;28;20049;-73
2021/03/19 14:56:47;;;;;;;11.63;3.90;;;;;;;;;;6204612;28;20042;-74
2021/03/19 14:59:48;;;;;;;6.78;3.65;;;;;;;;;;6208823;28;20065;-73
2021/03/19 15:02:50;;;;;;;12.43;3.78;;;;;;;;;;6212574;28;20088;-73
2021/03/19 15:05:52;;;;;;;16.50;3.80;;;;;;;;;;6212197;28;20049;-75
2021/03/19 15:08:53;;;;;;;7.03;3.75;;;;;;;;;;6214673;28;20092;-73
2021/03/19 15:11:55;;;;;;;8.95;4.05;;;;;;;;;;6209565;28;20069;-73
2021/03/19 15:14:56;;;;;;;5.05;3.58;;;;;;;;;;6205981;28;20085;-74
2021/03/19 15:17:57;;;;;;;6.07;4.15;;;;;;;;;;6193386;28;20129;-73
2021/03/19 15:21:01;;;;;;;10.25;4.35;;;;;;;;;;6205002;28;20046;-73
2021/03/19 15:24:03;;;;;;;4.28;3.88;;;;;;;;;;6205363;28;20585;-72
2021/03/19 15:27:06;;;;;;;6.20;3.63;;;;;;;;;;6207033;28;20153;-73
2021/03/19 15:30:10;;;;;;;5.43;4.32;;;;;;;;;;6212143;28;20056;-73
2021/03/19 15:33:11;;;;;;;5.95;3.80;;;;;;;;;;6214621;28;20125;-71
2021/03/19 15:36:13;;;;;;;7.80;4.32;;;;;;;;;;6212450;28;20046;-73
2021/03/19 15:39:15;;;;;;;5.43;3.72;;;;;;;;;;6209829;28;20046;-72
2021/03/19 15:42:16;;;;;;;4.93;3.83;;;;;;;;;;6210774;28;20053;-73
2021/03/19 15:45:18;;;;;;;5.80;3.80;;;;;;;;;;6213002;28;20053;-73
2021/03/19 15:48:20;;;;;;;4.70;4.22;;;;;;;;;;6211096;28;20114;-74
2021/03/19 15:51:21;;;;;;;4.90;3.70;;;;;;;;;;6209031;28;20052;-73
2021/03/19 15:54:22;;;;;;;6.38;3.85;;;;;;;;;;6207305;28;20084;-75
2021/03/19 15:57:24;;;;;;;4.63;3.80;;;;;;;;;;6201861;28;20054;-75
2021/03/19 16:00:28;;;;;;;8.80;3.92;;;;;;;;;;6203883;28;20137;-74
2021/03/19 16:03:29;;;;;;;6.53;4.10;;;;;;;;;;6205470;28;20176;-72
2021/03/19 16:06:31;;;;;;;5.32;3.80;;;;;;;;;;6205208;28;20185;-72
2021/03/19 16:09:32;;;;;;;5.13;3.72;;;;;;;;;;6207472;28;20069;-72
2021/03/19 16:12:35;;;;;;;6.25;3.67;;;;;;;;;;6209982;28;20120;-72
2021/03/19 16:15:36;;;;;;;4.32;3.45;;;;;;;;;;6205119;28;20088;-72
2021/03/19 16:18:37;;;;;;;5.40;3.55;;;;;;;;;;6207149;28;20484;-73
2021/03/19 16:21:38;;;;;;;4.88;3.72;;;;;;;;;;6208038;28;20072;-75
2021/03/19 16:24:39;;;;;;;4.10;3.67;;;;;;;;;;6208768;28;20136;-72
2021/03/19 16:27:41;;;;;;;3.80;3.40;;;;;;;;;;6204748;28;20485;-77
2021/03/19 16:30:47;;;;;;;6.00;4.03;;;;;;;;;;6205908;28;20095;-76
2021/03/19 16:33:48;;;;;;;5.18;3.75;;;;;;;;;;6207892;28;20105;-73
2021/03/19 16:36:49;;;;;;;9.27;4.78;;;;;;;;;;6203794;28;20172;-73
2021/03/19 16:39:51;;;;;;;5.72;3.95;;;;;;;;;;6204490;28;20045;-72
2021/03/19 16:42:56;;;;;;;4.28;3.85;;;;;;;;;;6205973;28;20139;-75
2021/03/19 16:45:57;;;;;;;6.60;4.50;;;;;;;;;;6201431;28;20405;-73
2021/03/19 16:48:58;;;;;;;5.15;4.03;;;;;;;;;;6183187;28;20592;-72
2021/03/19 16:51:59;;;;;;;7.55;4.13;;;;;;;;;;6184236;28;20137;-74
2021/03/19 16:55:00;;;;;;;4.47;3.60;;;;;;;;;;6183944;28;20069;-73
2021/03/19 16:58:02;;;;;;;4.25;3.85;;;;;;;;;;6182357;28;20050;-72
2021/03/19 17:01:03;;;;;;;6.03;3.83;;;;;;;;;;6187323;28;20653;-73
2021/03/19 17:04:05;;;;;;;10.75;3.90;;;;;;;;;;6184353;28;20086;-73
2021/03/19 17:07:06;;;;;;;8.30;4.45;;;;;;;;;;6185848;28;20096;-72
2021/03/19 17:10:10;;;;;;;8.25;4.90;;;;;;;;;;6183559;28;20185;-72
2021/03/19 17:13:14;;;;;;;10.98;5.28;;;;;;;;;;6177512;28;20079;-72
2021/03/19 17:16:15;;;;;;;6.35;4.13;;;;;;;;;;6177655;28;20668;-73
2021/03/19 17:19:16;;;;;;;7.35;4.40;;;;;;;;;;6180566;28;20385;-73
2021/03/19 17:22:18;;;;;;;6.18;4.20;;;;;;;;;;6185702;28;20046;-73
2021/03/19 17:25:19;;;;;;;6.25;4.70;;;;;;;;;;6206202;28;20062;-73
2021/03/19 17:28:23;;;;;;;8.90;4.40;;;;;;;;;;6179557;28;20049;-73
2021/03/19 17:31:24;;;;;;;;;;;;;;;;;;6183083;28;20046;-75
2021/03/19 17:34:26;;;;;;;6.03;4.40;;;;;;;;;;6206384;28;19930;-74
2021/03/19 17:37:27;;;;;;;7.43;4.05;;;;;;;;;;6205007;28;20207;-74
2021/03/19 17:40:28;;;;;;;9.50;4.60;;;;;;;;;;6212434;28;20081;-72
2021/03/19 17:43:31;;;;;;;5.15;4.22;;;;;;;;;;6209666;28;20133;-73
2021/03/19 17:46:32;;;;;;;8.33;5.00;;;;;;;;;;6201720;28;20661;-74
2021/03/19 17:49:34;;;;;;;6.85;4.50;;;;;;;;;;6209524;28;20153;-72
2021/03/19 17:52:35;;;;;;;6.88;4.65;;;;;;;;;;6211439;28;20078;-72
2021/03/19 17:55:36;;;;;;;8.68;4.63;;;;;;;;;;6206890;28;20760;-76
2021/03/19 17:58:38;;;;;;;13.77;5.13;;;;;;;;;;6205032;28;20038;-73
2021/03/19 18:01:39;;;;;;;5.50;3.92;;;;;;;;;;6206558;28;20089;-72
2021/03/19 18:04:40;;;;;;;9.23;4.43;;;;;;;;;;6207931;28;20053;-72
2021/03/19 18:07:42;;;;;;;5.63;4.18;;;;;;;;;;6203667;28;20173;-73
2021/03/19 18:10:43;;;;;;;6.95;4.43;;;;;;;;;;6212668;28;20077;-73
2021/03/19 18:13:45;;;;;;;5.68;4.53;;;;;;;;;;6207292;28;20653;-75
2021/03/19 18:16:47;;;;;;;6.22;4.88;;;;;;;;;;6210626;28;20088;-72
2021/03/19 18:19:48;;;;;;;6.00;4.63;;;;;;;;;;6197614;28;20050;-73
2021/03/19 18:22:50;;;;;;;6.30;4.90;;;;;;;;;;6204469;28;20046;-73
2021/03/19 18:25:52;;;;;;;9.10;4.45;;;;;;;;;;6207262;28;20180;-73
2021/03/19 18:28:57;;;;;;;6.10;4.97;;;;;;;;;;6203094;28;20049;-73